ハバナ の空港の天気 - METARとTAF

ホセ・マルティ国際空港 ( MUHA / HAV ) - キューバ ハバナ
飛行場実況気象(Metar)
観測時間01/24 06:55 CST (01/24 11:55 UTC)
風向・風速静穏 0m/s
視程5000m
天気現象もや
少しの雲 雲底高度 910m
気温9℃
湿度100%
気圧1016hPa
METARMUHA 241155Z 00000KT 5000 BR FEW030 09/09 Q1016
過去の天気等 Google飛行場航空写真 Wunderground天気予報

過去48時間のMETAR

飛行場予報(TAF)
発表時間: 1/24 06:00 CST (1/24 11:00 UTC)
予報対象時間: 24日7時 CST ~ 25日7時 CST
風向・風速不定 2m/s
視程9000m
少しの雲 雲底高度 910m
24日9時 CST ~ 24日11時 CST に徐々に
風向・風速南南西 4m/s
全天の4割程度の雲 雲底高度 760m
24日21時 CST ~ 24日23時 CST に徐々に
風向・風速北北東 3m/s
MUHA 241100Z 2412/2512 VRB03KT 9000 FEW030
BECMG 2414/2416 21008KT SCT025
BECMG 2502/2504 03005KT